createdAt,value
2022-08-10T00:00:36.380Z,18.20
2022-08-10T00:01:36.519Z,18.18
2022-08-10T00:02:36.570Z,18.13
2022-08-10T00:03:36.337Z,18.07
2022-08-10T00:04:36.338Z,18.03
2022-08-10T00:05:43.051Z,18.00
2022-08-10T00:06:37.307Z,18.01
2022-08-10T00:07:36.310Z,18.00
2022-08-10T00:08:36.289Z,17.98
2022-08-10T00:09:50.010Z,17.98
2022-08-10T00:10:37.262Z,17.95
2022-08-10T00:11:36.255Z,17.97
2022-08-10T00:12:53.343Z,17.94
2022-08-10T00:13:37.242Z,17.92
2022-08-10T00:14:36.222Z,17.92
2022-08-10T00:15:52.795Z,17.95
2022-08-10T00:16:37.200Z,17.94
2022-08-10T00:17:36.181Z,17.94
2022-08-10T00:18:36.447Z,17.90
2022-08-10T00:20:03.524Z,17.90
2022-08-10T00:20:37.150Z,17.87
2022-08-10T00:21:36.139Z,17.86
2022-08-10T00:22:36.205Z,17.83
2022-08-10T00:23:37.133Z,17.82
2022-08-10T00:24:39.134Z,17.85
2022-08-10T00:25:37.091Z,17.85
2022-08-10T00:27:52.497Z,17.83
2022-08-10T00:28:01.679Z,17.83
2022-08-10T00:28:37.052Z,17.83
2022-08-10T00:29:36.062Z,17.86
2022-08-10T00:30:36.033Z,17.89
2022-08-10T00:31:58.077Z,17.90
2022-08-10T00:32:37.012Z,17.95
2022-08-10T00:33:36.000Z,17.95
2022-08-10T00:34:36.016Z,17.95
2022-08-10T00:35:35.973Z,17.97
2022-08-10T00:36:35.972Z,17.97
2022-08-10T00:37:35.953Z,17.89
2022-08-10T00:38:35.943Z,17.85
2022-08-10T00:39:39.300Z,17.85
2022-08-10T00:40:38.064Z,17.82
2022-08-10T00:41:35.905Z,17.80
2022-08-10T00:42:36.143Z,17.79
2022-08-10T00:43:35.884Z,17.78
2022-08-10T00:44:35.874Z,17.78
2022-08-10T00:45:35.893Z,17.74
2022-08-10T00:46:35.854Z,17.74
2022-08-10T00:47:37.739Z,17.76
2022-08-10T00:48:35.834Z,17.78
2022-08-10T00:49:35.815Z,17.78
2022-08-10T00:50:35.818Z,17.76
2022-08-10T00:51:47.914Z,17.78
2022-08-10T00:52:36.967Z,17.80
2022-08-10T00:53:35.775Z,17.80
2022-08-10T00:54:35.766Z,17.80
2022-08-10T00:57:14.669Z,17.82
2022-08-10T00:57:16.560Z,17.83
2022-08-10T00:57:36.727Z,17.83
2022-08-10T00:58:35.724Z,17.83
2022-08-10T00:59:35.706Z,17.80
2022-08-10T01:00:36.699Z,17.80
2022-08-10T01:02:09.179Z,17.83
2022-08-10T01:02:36.910Z,17.85
2022-08-10T01:04:39.568Z,17.85
2022-08-10T01:04:58.982Z,17.85
2022-08-10T01:05:36.636Z,17.85
2022-08-10T01:06:36.626Z,17.83
2022-08-10T01:07:35.616Z,17.89
2022-08-10T01:08:35.627Z,17.90
2022-08-10T01:09:35.587Z,17.92
2022-08-10T01:10:35.587Z,17.90
2022-08-10T01:11:42.355Z,17.90
2022-08-10T01:12:40.517Z,17.92
2022-08-10T01:13:35.548Z,17.95
2022-08-10T01:14:35.558Z,17.95
2022-08-10T01:15:35.518Z,17.94
2022-08-10T01:16:35.518Z,17.94
2022-08-10T01:17:50.769Z,17.92
2022-08-10T01:18:37.963Z,17.94
2022-08-10T01:19:35.477Z,17.90
2022-08-10T01:20:35.498Z,17.92
2022-08-10T01:21:35.458Z,17.90
2022-08-10T01:22:35.586Z,17.95
2022-08-10T01:23:35.437Z,17.95
2022-08-10T01:24:35.429Z,17.94
2022-08-10T01:25:35.417Z,17.94
2022-08-10T01:26:37.174Z,17.95
2022-08-10T01:27:35.388Z,17.92
2022-08-10T01:28:35.381Z,17.90
2022-08-10T01:29:35.370Z,17.85
2022-08-10T01:30:35.361Z,17.80
2022-08-10T01:31:35.347Z,17.76
2022-08-10T01:32:35.516Z,17.70
2022-08-10T01:34:01.957Z,17.68
2022-08-10T01:34:36.308Z,17.64
2022-08-10T01:35:35.300Z,17.57
2022-08-10T01:36:35.290Z,17.56
2022-08-10T01:37:35.277Z,17.51
2022-08-10T01:38:35.280Z,17.49
2022-08-10T01:39:35.316Z,17.46
2022-08-10T01:40:35.241Z,17.44
2022-08-10T01:41:40.889Z,17.41
2022-08-10T01:42:36.412Z,17.41
2022-08-10T01:43:35.231Z,17.42
2022-08-10T01:44:35.201Z,17.42
2022-08-10T01:45:44.558Z,17.44
2022-08-10T01:46:36.178Z,17.41
2022-08-10T01:47:36.913Z,17.41
2022-08-10T01:48:35.150Z,17.41
2022-08-10T01:49:35.170Z,17.39
2022-08-10T01:50:35.130Z,17.39
2022-08-10T01:51:36.120Z,17.39
2022-08-10T01:52:35.180Z,17.39
2022-08-10T01:53:41.135Z,17.38
2022-08-10T01:54:36.101Z,17.33
2022-08-10T01:55:35.071Z,17.34
2022-08-10T01:56:35.064Z,17.36
2022-08-10T01:57:35.051Z,17.36
2022-08-10T01:58:35.039Z,17.36
2022-08-10T01:59:35.033Z,17.33
2022-08-10T02:00:35.031Z,17.30
2022-08-10T02:01:35.069Z,17.30
2022-08-10T02:02:35.096Z,17.31
2022-08-10T02:03:34.980Z,17.29
2022-08-10T02:04:35.973Z,17.30
2022-08-10T02:05:35.003Z,17.30
2022-08-10T02:06:34.942Z,17.29
2022-08-10T02:07:37.343Z,17.24
2022-08-10T02:08:34.922Z,17.19
2022-08-10T02:09:34.912Z,17.16
2022-08-10T02:10:34.903Z,17.14
2022-08-10T02:12:05.900Z,17.14
2022-08-10T02:12:36.048Z,17.14
2022-08-10T02:13:34.870Z,17.15
2022-08-10T02:14:34.974Z,17.19
2022-08-10T02:15:34.851Z,17.19
2022-08-10T02:16:34.832Z,17.20
2022-08-10T02:17:57.821Z,17.20
2022-08-10T02:18:35.802Z,17.22
2022-08-10T02:19:34.802Z,17.22
2022-08-10T02:20:34.783Z,17.20
2022-08-10T02:21:34.782Z,17.19
2022-08-10T02:22:37.038Z,17.15
2022-08-10T02:23:34.798Z,17.14
2022-08-10T02:24:34.742Z,17.14
2022-08-10T02:25:41.002Z,17.14
2022-08-10T02:26:35.714Z,17.12
2022-08-10T02:27:34.713Z,17.14
2022-08-10T02:28:34.694Z,17.11
2022-08-10T02:29:34.706Z,17.11
2022-08-10T02:30:34.673Z,17.09
2022-08-10T02:31:34.663Z,17.12
2022-08-10T02:32:47.666Z,17.12
2022-08-10T02:33:36.893Z,17.12
2022-08-10T02:34:34.645Z,17.09
2022-08-10T02:35:54.415Z,17.11
2022-08-10T02:36:35.604Z,17.08
2022-08-10T02:37:34.606Z,17.02
2022-08-10T02:38:58.597Z,16.99
2022-08-10T02:39:35.662Z,17.02
2022-08-10T02:42:18.427Z,17.01
2022-08-10T02:45:00.546Z,17.05
2022-08-10T02:45:17.971Z,17.05
2022-08-10T02:45:19.060Z,17.05
2022-08-10T02:45:27.644Z,17.04
2022-08-10T02:45:35.765Z,17.04
2022-08-10T02:46:34.486Z,17.02
2022-08-10T02:47:51.672Z,17.04
2022-08-10T02:48:35.465Z,17.02
2022-08-10T02:49:34.465Z,17.01
2022-08-10T02:50:34.445Z,17.01
2022-08-10T02:52:06.497Z,16.99
2022-08-10T02:52:35.612Z,16.99
2022-08-10T02:53:55.070Z,16.97
2022-08-10T02:54:35.397Z,16.94
2022-08-10T02:55:34.395Z,16.93
2022-08-10T02:56:34.399Z,16.96
2022-08-10T02:57:34.367Z,16.93
2022-08-10T02:58:34.355Z,16.93
2022-08-10T02:59:38.546Z,16.90
2022-08-10T03:00:35.338Z,16.90
2022-08-10T03:01:34.381Z,16.89
2022-08-10T03:02:34.602Z,16.91
2022-08-10T03:03:34.333Z,16.96
2022-08-10T03:04:56.022Z,16.94
2022-08-10T03:05:35.278Z,16.94
2022-08-10T03:06:34.264Z,16.90
2022-08-10T03:07:42.840Z,16.89
2022-08-10T03:08:35.287Z,16.87
2022-08-10T03:09:34.236Z,16.90
2022-08-10T03:10:34.217Z,16.90
2022-08-10T03:12:35.170Z,16.91
2022-08-10T03:12:38.160Z,16.90
2022-08-10T03:13:34.187Z,16.90
2022-08-10T03:14:34.196Z,16.87
2022-08-10T03:15:34.165Z,16.83
2022-08-10T03:16:34.147Z,16.75
2022-08-10T03:17:34.138Z,16.72
2022-08-10T03:18:34.129Z,16.68
2022-08-10T03:20:33.545Z,16.66
2022-08-10T03:20:39.304Z,16.61
2022-08-10T03:21:35.099Z,16.57
2022-08-10T03:22:34.153Z,16.57
2022-08-10T03:23:34.077Z,16.58
2022-08-10T03:24:34.058Z,16.60
2022-08-10T03:25:34.078Z,16.60
2022-08-10T03:26:34.039Z,16.61
2022-08-10T03:27:34.029Z,16.64
2022-08-10T03:28:34.018Z,16.65
2022-08-10T03:30:29.324Z,16.64
2022-08-10T03:30:35.098Z,16.64
2022-08-10T03:31:33.999Z,16.60
2022-08-10T03:32:35.114Z,16.56
2022-08-10T03:33:33.965Z,16.54
2022-08-10T03:34:33.973Z,16.51
2022-08-10T03:35:33.939Z,16.53
2022-08-10T03:36:42.445Z,16.51
2022-08-10T03:37:34.917Z,16.50
2022-08-10T03:38:33.900Z,16.46
2022-08-10T03:39:33.944Z,16.43
2022-08-10T03:40:44.919Z,16.43
2022-08-10T03:41:35.615Z,16.42
2022-08-10T03:42:33.926Z,16.41
2022-08-10T03:43:33.850Z,16.36
2022-08-10T03:44:33.839Z,16.33
2022-08-10T03:45:55.531Z,16.28
2022-08-10T03:46:34.818Z,16.24
2022-08-10T03:47:33.830Z,16.21
2022-08-10T03:48:48.492Z,16.21
2022-08-10T03:49:34.780Z,16.21
2022-08-10T03:50:51.375Z,16.17
2022-08-10T03:51:34.760Z,16.15
2022-08-10T03:52:33.740Z,16.10
2022-08-10T03:54:03.257Z,16.13
2022-08-10T03:54:34.721Z,16.13
2022-08-10T03:56:30.496Z,16.10
2022-08-10T03:56:34.713Z,16.12
2022-08-10T03:57:33.693Z,16.09
2022-08-10T03:58:33.671Z,16.08
2022-08-10T03:59:33.711Z,16.05
2022-08-10T04:00:33.697Z,16.05
2022-08-10T04:02:41.434Z,16.02
2022-08-10T04:02:46.060Z,16.00
2022-08-10T04:04:43.546Z,16.02
2022-08-10T04:05:43.519Z,16.01
2022-08-10T04:06:43.498Z,16.04
2022-08-10T04:07:43.500Z,16.04
2022-08-10T04:08:43.479Z,16.05
2022-08-10T04:09:54.169Z,16.09
2022-08-10T04:10:44.470Z,16.09
2022-08-10T04:11:43.450Z,16.05
2022-08-10T04:12:43.431Z,16.04
2022-08-10T04:13:43.420Z,16.01
2022-08-10T04:14:49.293Z,16.00
2022-08-10T04:15:44.428Z,15.98
2022-08-10T04:16:43.390Z,15.98
2022-08-10T04:18:03.362Z,15.98
2022-08-10T04:18:44.361Z,15.98
2022-08-10T04:19:43.358Z,15.97
2022-08-10T04:20:43.341Z,15.97
2022-08-10T04:21:43.358Z,15.95
2022-08-10T04:22:43.325Z,15.94
2022-08-10T04:23:43.325Z,15.97
2022-08-10T04:24:43.300Z,15.97
2022-08-10T04:25:43.290Z,15.97
2022-08-10T04:26:43.271Z,15.98
2022-08-10T04:27:43.290Z,15.95
2022-08-10T04:28:43.259Z,15.98
2022-08-10T04:29:43.250Z,16.02
2022-08-10T04:30:43.231Z,16.05
2022-08-10T04:31:43.222Z,16.05
2022-08-10T04:32:43.210Z,16.05
2022-08-10T04:33:43.211Z,16.05
2022-08-10T04:34:43.190Z,16.05
2022-08-10T04:35:43.180Z,16.08
2022-08-10T04:36:43.165Z,16.08
2022-08-10T04:37:46.781Z,16.08
2022-08-10T04:38:43.163Z,16.09
2022-08-10T04:39:43.238Z,16.09
2022-08-10T04:40:43.122Z,16.10
2022-08-10T04:41:46.267Z,16.10
2022-08-10T04:42:43.094Z,16.13
2022-08-10T04:43:43.083Z,16.15
2022-08-10T04:44:43.091Z,16.17
2022-08-10T04:45:48.750Z,16.20
2022-08-10T04:46:58.456Z,16.20
2022-08-10T04:47:57.614Z,16.23
2022-08-10T04:49:01.547Z,16.23
2022-08-10T04:49:54.965Z,16.26
2022-08-10T04:50:44.004Z,16.28
2022-08-10T04:51:42.993Z,16.29
2022-08-10T04:52:42.982Z,16.29
2022-08-10T04:54:04.308Z,16.29
2022-08-10T04:54:43.963Z,16.29
2022-08-10T04:55:42.973Z,16.29
2022-08-10T04:56:42.934Z,16.32
2022-08-10T04:57:42.930Z,16.31
2022-08-10T04:58:42.913Z,16.35
2022-08-10T04:59:42.906Z,16.39
2022-08-10T05:00:42.949Z,16.46
2022-08-10T05:02:29.034Z,16.54
2022-08-10T05:02:43.874Z,16.57
2022-08-10T05:04:34.870Z,16.66
2022-08-10T05:04:43.844Z,16.68
2022-08-10T05:05:42.842Z,16.69
2022-08-10T05:06:42.844Z,16.69
2022-08-10T05:07:54.152Z,16.68
2022-08-10T05:08:43.803Z,16.71
2022-08-10T05:10:03.700Z,16.74
2022-08-10T05:10:43.785Z,16.75
2022-08-10T05:11:42.775Z,16.78
2022-08-10T05:12:42.803Z,16.84
2022-08-10T05:13:42.745Z,16.93
2022-08-10T05:14:42.736Z,16.99
2022-08-10T05:15:42.725Z,17.04
2022-08-10T05:16:42.714Z,17.09
2022-08-10T05:18:04.556Z,17.12
2022-08-10T05:18:43.705Z,17.15
2022-08-10T05:20:02.999Z,17.15
2022-08-10T05:20:47.265Z,17.24
2022-08-10T05:22:01.475Z,17.34
2022-08-10T05:22:43.639Z,17.41
2022-08-10T05:23:42.634Z,17.48
2022-08-10T05:24:42.644Z,17.54
2022-08-10T05:25:42.637Z,17.56
2022-08-10T05:27:00.397Z,17.57
2022-08-10T05:27:43.593Z,17.60
2022-08-10T05:28:42.576Z,17.64
2022-08-10T05:29:42.574Z,17.65
2022-08-10T05:30:42.569Z,17.71
2022-08-10T05:31:42.546Z,17.78
2022-08-10T05:32:57.275Z,17.80
2022-08-10T05:33:43.524Z,17.85
2022-08-10T05:34:42.512Z,17.87
2022-08-10T05:35:57.223Z,17.92
2022-08-10T05:36:43.489Z,17.92
2022-08-10T05:38:12.291Z,17.97
2022-08-10T05:38:43.476Z,18.03
2022-08-10T05:39:42.504Z,18.07
2022-08-10T05:40:46.149Z,18.16
2022-08-10T05:41:46.075Z,18.18
2022-08-10T05:42:42.428Z,18.23
2022-08-10T05:43:42.419Z,18.29
2022-08-10T05:44:42.410Z,18.35
2022-08-10T05:46:18.234Z,18.40
2022-08-10T05:46:43.399Z,18.43
2022-08-10T05:48:55.304Z,18.47
2022-08-10T05:48:59.453Z,18.52
2022-08-10T05:49:43.349Z,18.55
2022-08-10T05:50:42.347Z,18.59
2022-08-10T05:51:42.340Z,18.65
2022-08-10T05:52:42.328Z,18.73
2022-08-10T05:54:04.211Z,18.80
2022-08-10T05:54:43.300Z,18.86
2022-08-10T05:55:42.298Z,18.86
2022-08-10T05:56:55.169Z,18.92
2022-08-10T05:57:43.279Z,18.98
2022-08-10T05:58:42.250Z,19.07
2022-08-10T06:00:34.603Z,19.16
2022-08-10T06:00:49.743Z,19.29
2022-08-10T06:01:43.231Z,19.37
2022-08-10T06:02:43.453Z,19.47
2022-08-10T06:03:42.209Z,19.58
2022-08-10T06:04:42.178Z,19.67
2022-08-10T06:05:42.180Z,19.81
2022-08-10T06:06:42.150Z,19.96
2022-08-10T06:07:42.149Z,20.11
2022-08-10T06:08:42.154Z,20.24
2022-08-10T06:09:59.585Z,20.39
2022-08-10T06:12:23.690Z,20.44
2022-08-10T06:12:23.857Z,20.67
2022-08-10T06:12:55.136Z,21.20
2022-08-10T06:13:59.770Z,21.92
2022-08-10T06:14:43.073Z,22.78
2022-08-10T06:15:51.725Z,23.43
2022-08-10T06:16:43.042Z,24.28
2022-08-10T06:17:42.033Z,24.47
2022-08-10T06:18:42.020Z,24.80
2022-08-10T06:19:42.031Z,25.13
2022-08-10T06:20:42.001Z,25.58
2022-08-10T06:22:00.898Z,25.72
2022-08-10T06:22:42.974Z,25.85
2022-08-10T06:23:41.965Z,26.00
2022-08-10T06:25:02.723Z,26.28
2022-08-10T06:26:11.253Z,26.48
2022-08-10T06:26:42.939Z,26.25
2022-08-10T06:27:41.923Z,26.45
2022-08-10T06:28:41.915Z,26.75
2022-08-10T06:29:41.903Z,26.89
2022-08-10T06:30:41.884Z,27.07
2022-08-10T06:31:47.724Z,27.39
2022-08-10T06:32:42.864Z,27.52
2022-08-10T06:33:41.855Z,27.70
2022-08-10T06:34:41.846Z,27.96
2022-08-10T06:35:41.846Z,28.17
2022-08-10T06:36:41.836Z,28.17
2022-08-10T06:37:41.816Z,28.33
2022-08-10T06:38:41.811Z,28.69
2022-08-10T06:39:41.866Z,28.69
2022-08-10T06:40:41.779Z,28.49
2022-08-10T06:42:01.364Z,28.63
2022-08-10T06:42:42.777Z,28.69
2022-08-10T06:43:41.748Z,28.91
2022-08-10T06:44:41.739Z,28.97
2022-08-10T06:45:41.740Z,29.27
2022-08-10T06:46:44.990Z,29.04
2022-08-10T06:47:42.730Z,29.02
2022-08-10T06:48:41.699Z,29.20
2022-08-10T06:49:41.690Z,29.01
2022-08-10T06:50:56.265Z,29.08
2022-08-10T06:51:42.669Z,28.66
2022-08-10T06:52:41.659Z,28.41
2022-08-10T06:53:52.915Z,28.70
2022-08-10T06:54:42.640Z,28.94
2022-08-10T06:55:55.222Z,29.22
2022-08-10T06:56:55.877Z,29.44
2022-08-10T06:57:42.601Z,29.91
2022-08-10T06:58:41.593Z,30.48
2022-08-10T06:59:41.602Z,30.68
2022-08-10T07:00:41.656Z,30.61
2022-08-10T07:01:41.561Z,30.62
2022-08-10T07:02:42.543Z,30.59
2022-08-10T07:03:41.535Z,30.53
2022-08-10T07:04:41.526Z,30.34
2022-08-10T07:05:41.542Z,30.35
2022-08-10T07:06:41.514Z,30.65
2022-08-10T07:07:41.495Z,30.28
2022-08-10T07:08:41.484Z,30.53
2022-08-10T07:09:41.472Z,30.48
2022-08-10T07:10:46.314Z,30.62
2022-08-10T07:11:42.476Z,30.55
2022-08-10T07:12:41.446Z,30.62
2022-08-10T07:14:16.047Z,30.65
2022-08-10T07:14:42.475Z,30.65
2022-08-10T07:16:00.025Z,30.72
2022-08-10T07:16:42.447Z,31.07
2022-08-10T07:17:41.387Z,31.31
2022-08-10T07:18:41.378Z,31.62
2022-08-10T07:19:50.047Z,31.84
2022-08-10T07:20:42.358Z,32.07
2022-08-10T07:21:41.347Z,31.99
2022-08-10T07:23:54.503Z,32.12
2022-08-10T07:23:58.222Z,31.84
2022-08-10T07:24:42.331Z,32.12
2022-08-10T07:25:41.311Z,32.23
2022-08-10T07:26:41.299Z,31.85
2022-08-10T07:27:59.222Z,31.49
2022-08-10T07:28:47.519Z,31.39
2022-08-10T07:29:53.799Z,31.09
2022-08-10T07:30:42.259Z,30.69
2022-08-10T07:31:55.783Z,30.43
2022-08-10T07:32:42.251Z,30.25
2022-08-10T07:33:41.242Z,30.85
2022-08-10T07:34:41.223Z,31.12
2022-08-10T07:35:42.096Z,31.64
2022-08-10T07:36:41.204Z,32.12
2022-08-10T07:37:41.185Z,32.18
2022-08-10T07:38:41.194Z,32.38
2022-08-10T07:39:57.931Z,32.64
2022-08-10T07:40:42.222Z,32.86
2022-08-10T07:41:41.143Z,32.41
2022-08-10T07:42:45.138Z,31.89
2022-08-10T07:43:41.144Z,31.44
2022-08-10T07:44:41.116Z,31.51
2022-08-10T07:45:41.107Z,31.87
2022-08-10T07:46:41.096Z,32.01
2022-08-10T07:47:54.038Z,32.34
2022-08-10T07:48:42.101Z,32.70
2022-08-10T07:49:41.068Z,32.80
2022-08-10T07:50:41.056Z,33.14
2022-08-10T07:51:41.040Z,33.28
2022-08-10T07:52:41.039Z,33.45
2022-08-10T07:53:41.026Z,33.69
2022-08-10T07:54:41.038Z,33.99
2022-08-10T07:56:03.407Z,33.98
2022-08-10T07:56:48.940Z,33.86
2022-08-10T07:57:41.980Z,33.79
2022-08-10T07:58:51.801Z,33.49
2022-08-10T07:59:41.982Z,33.58
2022-08-10T08:00:40.959Z,33.47
2022-08-10T08:01:41.015Z,33.46
2022-08-10T08:02:40.931Z,33.50
2022-08-10T08:03:40.931Z,33.00
2022-08-10T08:04:40.922Z,32.85
2022-08-10T08:06:02.512Z,32.92
2022-08-10T08:06:41.894Z,33.28
2022-08-10T08:07:40.892Z,33.81
2022-08-10T08:08:40.880Z,34.18
2022-08-10T08:09:58.346Z,34.30
2022-08-10T08:10:41.874Z,34.36
2022-08-10T08:11:40.854Z,34.51
2022-08-10T08:12:40.983Z,34.92
2022-08-10T08:13:40.824Z,34.38
2022-08-10T08:14:40.816Z,33.96
2022-08-10T08:16:18.352Z,33.49
2022-08-10T08:16:41.815Z,33.64
2022-08-10T08:17:40.781Z,33.74
2022-08-10T08:18:43.747Z,34.20
2022-08-10T08:19:46.029Z,34.52
2022-08-10T08:20:41.758Z,34.52
2022-08-10T08:24:04.411Z,34.24
2022-08-10T08:24:04.877Z,33.73
2022-08-10T08:24:07.807Z,33.58
2022-08-10T08:24:42.102Z,33.92
2022-08-10T08:25:40.711Z,33.69
2022-08-10T08:26:40.700Z,33.99
2022-08-10T08:27:40.708Z,34.40
2022-08-10T08:28:41.679Z,34.78
2022-08-10T08:29:40.669Z,34.62
2022-08-10T08:30:43.452Z,34.60
2022-08-10T08:32:01.887Z,34.78
2022-08-10T08:32:41.668Z,34.61
2022-08-10T08:33:42.517Z,34.93
2022-08-10T08:34:40.624Z,35.34
2022-08-10T08:35:40.612Z,35.05
2022-08-10T08:36:40.599Z,34.61
2022-08-10T08:38:29.535Z,34.54
2022-08-10T08:38:41.601Z,35.02
2022-08-10T08:39:40.624Z,35.36
2022-08-10T08:40:40.560Z,35.61
2022-08-10T08:41:40.552Z,36.09
2022-08-10T08:42:40.542Z,36.45
2022-08-10T08:43:40.544Z,36.20
2022-08-10T08:44:40.524Z,36.17
2022-08-10T08:45:50.872Z,35.85
2022-08-10T08:46:41.509Z,35.29
2022-08-10T08:48:03.595Z,34.80
2022-08-10T08:48:41.504Z,34.35
2022-08-10T08:50:08.055Z,34.29
2022-08-10T08:50:41.464Z,34.57
2022-08-10T08:52:07.298Z,35.11
2022-08-10T08:52:41.444Z,35.66
2022-08-10T08:54:02.428Z,35.05
2022-08-10T08:54:41.449Z,34.24
2022-08-10T08:56:04.621Z,34.11
2022-08-10T08:56:41.407Z,33.83
2022-08-10T08:57:49.494Z,33.71
2022-08-10T08:58:41.387Z,33.40
2022-08-10T08:59:40.460Z,33.53
2022-08-10T09:00:40.366Z,33.52
2022-08-10T09:01:41.425Z,34.01
2022-08-10T09:02:40.349Z,34.66
2022-08-10T09:03:40.349Z,35.29
2022-08-10T09:04:40.330Z,35.78
2022-08-10T09:05:58.801Z,36.23
2022-08-10T09:06:41.310Z,36.47
2022-08-10T09:08:00.910Z,35.93
2022-08-10T09:08:41.290Z,35.56
2022-08-10T09:09:40.281Z,34.86
2022-08-10T09:10:40.309Z,34.74
2022-08-10T09:11:40.265Z,34.67
2022-08-10T09:12:40.254Z,34.60
2022-08-10T09:13:40.241Z,34.55
2022-08-10T09:14:40.242Z,34.70
2022-08-10T09:15:41.643Z,35.12
2022-08-10T09:16:40.462Z,35.66
2022-08-10T09:17:40.216Z,36.18
2022-08-10T09:18:40.207Z,36.62
2022-08-10T09:19:40.193Z,37.03
2022-08-10T09:20:40.184Z,37.30
2022-08-10T09:21:51.540Z,37.18
2022-08-10T09:22:41.190Z,36.73
2022-08-10T09:24:05.155Z,35.37
2022-08-10T09:24:41.151Z,35.15
2022-08-10T09:25:40.136Z,35.23
2022-08-10T09:26:40.126Z,34.86
2022-08-10T09:27:40.135Z,34.47
2022-08-10T09:28:40.129Z,34.50
2022-08-10T09:29:40.097Z,34.83
2022-08-10T09:30:40.624Z,35.26
2022-08-10T09:31:40.078Z,35.30
2022-08-10T09:36:15.986Z,35.22
2022-08-10T09:36:20.576Z,35.27
2022-08-10T09:36:21.775Z,35.36
2022-08-10T09:36:23.156Z,35.22
2022-08-10T09:36:41.571Z,34.96
2022-08-10T09:38:01.015Z,34.88
2022-08-10T09:38:41.039Z,35.27
2022-08-10T09:40:06.938Z,35.76
2022-08-10T09:41:01.224Z,36.08
2022-08-10T09:41:41.066Z,36.43
2022-08-10T09:42:39.980Z,36.42
2022-08-10T09:43:39.960Z,36.12
2022-08-10T09:44:57.156Z,36.07
2022-08-10T09:45:40.959Z,35.95
2022-08-10T09:46:39.941Z,35.61
2022-08-10T09:47:58.575Z,35.55
2022-08-10T09:48:40.926Z,35.64
2022-08-10T09:49:54.328Z,35.58
2022-08-10T09:51:09.337Z,35.44
2022-08-10T09:51:47.097Z,35.46
2022-08-10T09:52:40.882Z,35.36
2022-08-10T09:53:39.875Z,35.14
2022-08-10T09:54:39.863Z,35.12
2022-08-10T09:56:17.847Z,35.19
2022-08-10T09:56:40.844Z,35.17
2022-08-10T09:57:41.469Z,34.71
2022-08-10T09:58:40.826Z,33.43
2022-08-10T10:00:00.248Z,32.55
2022-08-10T10:00:40.825Z,32.08
2022-08-10T10:01:58.253Z,31.62
2022-08-10T10:02:40.776Z,31.21
2022-08-10T10:03:46.909Z,31.02
2022-08-10T10:04:42.394Z,31.25
2022-08-10T10:05:39.762Z,31.49
2022-08-10T10:06:40.772Z,31.29
2022-08-10T10:07:39.745Z,31.12
2022-08-10T10:08:42.920Z,31.18
2022-08-10T10:09:39.720Z,31.27
2022-08-10T10:10:46.570Z,31.03
2022-08-10T10:11:40.695Z,30.62
2022-08-10T10:12:39.706Z,30.32
2022-08-10T10:14:03.524Z,30.19
2022-08-10T10:14:40.664Z,30.10
2022-08-10T10:15:39.648Z,30.06
2022-08-10T10:16:39.644Z,30.18
2022-08-10T10:17:39.617Z,30.48
2022-08-10T10:18:39.635Z,30.94
2022-08-10T10:19:40.856Z,31.20
2022-08-10T10:20:39.586Z,31.34
2022-08-10T10:21:55.877Z,31.43
2022-08-10T10:22:40.590Z,31.65
2022-08-10T10:23:39.579Z,31.64
2022-08-10T10:24:39.580Z,31.34
2022-08-10T10:25:50.786Z,31.22
2022-08-10T10:26:40.529Z,31.28
2022-08-10T10:27:39.519Z,31.46
2022-08-10T10:29:15.113Z,31.66
2022-08-10T10:29:56.644Z,31.92
2022-08-10T10:30:40.483Z,32.01
2022-08-10T10:31:39.474Z,31.77
2022-08-10T10:32:39.469Z,31.42
2022-08-10T10:33:39.451Z,31.22
2022-08-10T10:34:39.454Z,31.06
2022-08-10T10:35:39.462Z,31.00
2022-08-10T10:36:39.423Z,31.10
2022-08-10T10:38:02.744Z,31.28
2022-08-10T10:38:40.403Z,31.31
2022-08-10T10:39:39.401Z,31.02
2022-08-10T10:40:39.385Z,30.57
2022-08-10T10:41:56.354Z,30.44
2022-08-10T10:42:45.540Z,30.13
2022-08-10T10:43:40.343Z,30.00
2022-08-10T10:44:42.311Z,29.97
2022-08-10T10:45:49.972Z,29.76
2022-08-10T10:46:40.463Z,29.63
2022-08-10T10:47:39.305Z,29.65
2022-08-10T10:48:39.294Z,29.59
2022-08-10T10:49:39.286Z,29.63
2022-08-10T10:50:39.274Z,29.73
2022-08-10T10:51:39.274Z,29.93
2022-08-10T10:52:39.276Z,29.86
2022-08-10T10:53:39.236Z,29.60
2022-08-10T10:54:39.242Z,29.47
2022-08-10T10:55:50.025Z,29.61
2022-08-10T10:56:40.207Z,29.66
2022-08-10T10:57:58.491Z,29.78
2022-08-10T10:58:40.217Z,29.84
2022-08-10T10:59:54.895Z,29.94
2022-08-10T11:00:40.181Z,29.91
2022-08-10T11:01:39.244Z,29.91
2022-08-10T11:02:39.144Z,29.97
2022-08-10T11:03:39.127Z,30.13
2022-08-10T11:04:39.179Z,30.02
2022-08-10T11:05:39.111Z,29.91
2022-08-10T11:06:40.123Z,29.71
2022-08-10T11:07:39.142Z,29.50
2022-08-10T11:08:39.070Z,29.42
2022-08-10T11:10:03.442Z,29.49
2022-08-10T11:10:47.359Z,29.60
2022-08-10T11:12:01.434Z,29.79
2022-08-10T11:12:40.757Z,29.94
2022-08-10T11:14:24.598Z,30.12
2022-08-10T11:14:40.010Z,30.48
2022-08-10T11:15:42.683Z,30.91
2022-08-10T11:16:40.006Z,31.10
2022-08-10T11:17:38.980Z,31.09
2022-08-10T11:18:38.966Z,30.90
2022-08-10T11:20:03.002Z,30.72
2022-08-10T11:20:39.943Z,30.47
2022-08-10T11:21:38.963Z,30.30
2022-08-10T11:22:38.931Z,30.39
2022-08-10T11:23:38.912Z,30.50
2022-08-10T11:24:47.005Z,30.55
2022-08-10T11:25:39.894Z,30.77
2022-08-10T11:26:38.875Z,30.87
2022-08-10T11:27:38.924Z,30.83
2022-08-10T11:28:38.862Z,30.68
2022-08-10T11:29:42.569Z,30.68
2022-08-10T11:30:39.850Z,30.69
2022-08-10T11:31:38.836Z,30.55
2022-08-10T11:32:38.807Z,30.48
2022-08-10T11:34:04.156Z,30.48
2022-08-10T11:34:48.949Z,30.46
2022-08-10T11:35:39.796Z,30.21
2022-08-10T11:36:38.778Z,30.03
2022-08-10T11:38:31.119Z,29.94
2022-08-10T11:38:47.445Z,29.94
2022-08-10T11:39:48.549Z,30.06
2022-08-10T11:40:39.731Z,30.03
2022-08-10T11:42:09.402Z,30.06
2022-08-10T11:42:39.700Z,30.13
2022-08-10T11:43:38.715Z,30.23
2022-08-10T11:44:38.710Z,30.30
2022-08-10T11:45:38.678Z,30.31
2022-08-10T11:46:39.659Z,30.31
2022-08-10T11:47:38.653Z,30.34
2022-08-10T11:48:53.923Z,30.27
2022-08-10T11:49:39.650Z,30.15
2022-08-10T11:50:38.630Z,30.13
2022-08-10T11:51:38.619Z,30.02
2022-08-10T11:52:38.600Z,30.08
2022-08-10T11:53:39.306Z,30.13
2022-08-10T11:54:38.561Z,30.27
2022-08-10T11:55:38.593Z,30.48
2022-08-10T11:56:38.551Z,30.62
2022-08-10T11:57:53.774Z,30.69
2022-08-10T11:58:39.538Z,30.66
2022-08-10T11:59:38.523Z,30.61
2022-08-10T12:00:38.504Z,30.44
2022-08-10T12:01:38.521Z,30.39
2022-08-10T12:02:38.645Z,30.47
2022-08-10T12:03:38.475Z,30.44
2022-08-10T12:04:38.464Z,30.21
2022-08-10T12:05:48.307Z,29.97
2022-08-10T12:06:54.728Z,29.84
2022-08-10T12:08:54.948Z,29.79
2022-08-10T12:10:01.949Z,29.86
2022-08-10T12:10:11.243Z,30.00
2022-08-10T12:10:40.973Z,30.10
2022-08-10T12:11:38.390Z,30.15
2022-08-10T12:12:38.447Z,30.08
2022-08-10T12:13:38.368Z,30.09
2022-08-10T12:14:38.356Z,30.15
2022-08-10T12:15:38.386Z,30.16
2022-08-10T12:16:38.329Z,30.23
2022-08-10T12:17:38.340Z,30.34
2022-08-10T12:18:38.309Z,30.44
2022-08-10T12:20:02.548Z,30.39
2022-08-10T12:20:39.311Z,30.34
2022-08-10T12:21:38.278Z,30.21
2022-08-10T12:22:38.413Z,30.18
2022-08-10T12:23:39.087Z,30.27
2022-08-10T12:24:38.239Z,30.30
2022-08-10T12:25:55.646Z,30.25
2022-08-10T12:26:39.219Z,30.24
2022-08-10T12:27:38.214Z,30.34
2022-08-10T12:28:50.150Z,30.44
2022-08-10T12:29:39.457Z,30.51
2022-08-10T12:30:38.178Z,30.57
2022-08-10T12:31:38.179Z,30.68
2022-08-10T12:32:38.296Z,30.80
2022-08-10T12:34:01.908Z,30.92
2022-08-10T12:34:39.151Z,30.96
2022-08-10T12:35:38.131Z,31.00
2022-08-10T12:36:38.114Z,31.02
2022-08-10T12:37:38.102Z,31.02
2022-08-10T12:38:38.089Z,31.02
2022-08-10T12:39:38.123Z,30.90
2022-08-10T12:40:38.176Z,30.91
2022-08-10T12:41:44.308Z,31.02
2022-08-10T12:42:41.064Z,30.94
2022-08-10T12:44:07.454Z,30.92
2022-08-10T12:44:42.321Z,30.88
2022-08-10T12:45:38.018Z,30.83
2022-08-10T12:46:38.024Z,30.75
2022-08-10T12:47:37.997Z,30.78
2022-08-10T12:48:37.986Z,30.83
2022-08-10T12:49:37.974Z,30.72
2022-08-10T12:50:37.969Z,30.70
2022-08-10T12:51:37.955Z,30.77
2022-08-10T12:52:38.154Z,30.81
2022-08-10T12:53:37.936Z,30.81